Main page
METAR-TAF:

METAR-TAF

Airports :

Guernsey Airport

Guernsey,

latitude: 49-26N, longitude: 002-36W, elevation: 102 m

Current weather observation

The report was made 32 minutes ago, at 20:50 UTC
Wind 15 kt from the South/Southwest
Temperature 12°C
Humidity 82%
Pressure 1025 hPa
Visibility 10 km or more
Few clouds at a height of 2000 ft

METAR: EGJB 132050Z 20015KT 9999 FEW020 12/09 Q1025

Time: 21:22 (21:22 UTC)

Forecast

The report was made 1 hour and 22 minutes ago, at 20:00 UTC
Forecast valid from 13 at 21 UTC to 14 at 06 UTC
Wind 14 kt from the South
Visibility 10 km or more
Few clouds at a height of 2000 ft
Becoming
from 14 at 04 UTC to 14 at 06 UTC
Visibility: 7000 m
Broken clouds at a height of 800 ft
Probability 30% :
Temporary
from 14 at 04 UTC to 14 at 06 UTC
Visibility: 2000 m
Broken clouds at a height of 200 ft
mist

TAF: EGJB 132000Z 1321/1406 19014KT 9999 FEW020 BECMG 1404/1406 7000 BKN008 PROB30 TEMPO 1404/1406 2000 BR BKN002

Weather observations and forecasts of more than 4000 airports (METAR and TAF reports).

The available stations are represented by yellow and red dots on the map.

Hover mouse over dot to see the name of the station.

Then click to see weather observations and forecasts.

To change the map : click on the green buttons with a black cross to zoom in, on the green button with a dash to zoom out, or on the green arrows for adjacent maps.


METAR-TAF: